createdAt,value
2022-11-18T14:18:02.156Z,1.40
2022-11-18T14:20:30.710Z,0.88
2022-11-18T14:23:02.769Z,0.40
2022-11-18T14:25:35.231Z,0.90
2022-11-18T14:28:17.233Z,0.47
2022-11-18T14:30:59.196Z,1.10
2022-11-18T14:33:27.347Z,0.88
2022-11-18T14:36:01.693Z,0.80
2022-11-18T14:38:57.494Z,0.55
2022-11-18T14:41:46.628Z,1.10
2022-11-18T14:44:13.941Z,1.73
2022-11-18T14:46:43.594Z,0.55
2022-11-18T14:49:19.591Z,1.55
2022-11-18T14:51:46.911Z,0.95
2022-11-18T14:54:18.265Z,0.88
2022-11-18T14:56:50.043Z,0.50
2022-11-18T14:59:18.941Z,0.70
2022-11-18T15:01:46.506Z,1.85
2022-11-18T15:04:14.125Z,0.93
2022-11-18T15:06:40.928Z,0.50
2022-11-18T15:09:08.137Z,0.60
2022-11-18T15:11:35.807Z,1.13
2022-11-18T15:14:02.806Z,0.77
2022-11-18T15:16:31.341Z,0.95
2022-11-18T15:19:01.178Z,1.42
2022-11-18T15:21:28.365Z,0.80
2022-11-18T15:23:55.153Z,0.68
2022-11-18T15:26:48.908Z,0.80
2022-11-18T15:29:18.760Z,0.88
2022-11-18T15:31:46.184Z,0.80
2022-11-18T15:34:13.518Z,1.25
2022-11-18T15:36:40.563Z,1.13
2022-11-18T15:39:07.390Z,0.70
2022-11-18T15:41:34.123Z,0.80
2022-11-18T15:44:03.127Z,0.50
2022-11-18T15:46:30.650Z,0.55
2022-11-18T15:48:58.747Z,1.00
2022-11-18T15:51:27.275Z,1.55
2022-11-18T15:53:54.480Z,0.60
2022-11-18T15:56:24.035Z,0.70
2022-11-18T15:58:57.111Z,0.82
2022-11-18T16:01:30.214Z,0.93
2022-11-18T16:03:57.366Z,0.75
2022-11-18T16:06:25.077Z,0.43
2022-11-18T16:08:57.770Z,0.52
2022-11-18T16:11:45.784Z,0.60
2022-11-18T16:14:14.207Z,0.82
2022-11-18T16:16:42.802Z,0.90
2022-11-18T16:19:15.459Z,0.85
2022-11-18T16:24:14.632Z,0.88
2022-11-18T16:26:41.465Z,1.13
2022-11-18T16:29:10.454Z,0.50
2022-11-18T16:31:40.219Z,0.70
2022-11-18T16:34:29.739Z,0.60
2022-11-18T16:36:59.649Z,0.80
2022-11-18T16:39:28.010Z,1.10
2022-11-18T16:42:07.288Z,0.45
2022-11-18T16:44:36.081Z,0.60
2022-11-18T16:47:07.565Z,0.60
2022-11-18T16:49:37.558Z,0.80
2022-11-18T16:52:04.478Z,1.30
2022-11-18T16:54:33.381Z,2.13
2022-11-18T16:57:00.399Z,1.30
2022-11-18T16:59:29.439Z,1.05
2022-11-18T17:01:57.996Z,1.50
2022-11-18T17:04:26.331Z,1.20
2022-11-18T17:06:53.981Z,1.15
2022-11-18T17:09:23.226Z,1.20
2022-11-18T17:11:51.902Z,1.25
2022-11-18T17:14:19.702Z,0.60
2022-11-18T17:16:46.764Z,0.43
2022-11-18T17:19:15.657Z,1.15
2022-11-18T17:21:42.710Z,0.88
2022-11-18T17:24:10.626Z,0.95
2022-11-18T17:26:37.453Z,0.70
2022-11-18T17:29:04.279Z,0.80
2022-11-18T17:31:31.017Z,1.27
2022-11-18T17:33:58.066Z,1.13
2022-11-18T17:36:26.707Z,0.93
2022-11-18T17:38:55.787Z,1.25
2022-11-18T17:41:45.477Z,1.35
2022-11-18T17:44:15.043Z,1.20
2022-11-18T17:46:42.757Z,1.05
2022-11-18T17:49:22.152Z,1.02
2022-11-18T17:51:51.209Z,0.90
2022-11-18T17:54:19.062Z,1.20
2022-11-18T17:56:47.291Z,1.00
2022-11-18T17:59:15.730Z,0.80
2022-11-18T18:01:42.644Z,0.85
2022-11-18T18:04:09.590Z,1.25
2022-11-18T18:06:36.313Z,1.00
2022-11-18T18:09:03.776Z,1.27
2022-11-18T18:11:30.504Z,1.02
2022-11-18T18:14:12.529Z,1.17
2022-11-18T18:16:46.966Z,0.95
2022-11-18T18:19:16.613Z,1.00
2022-11-18T18:21:44.173Z,1.15
2022-11-18T18:24:12.178Z,1.02
2022-11-18T18:26:39.126Z,0.77
2022-11-18T18:29:06.292Z,1.05
2022-11-18T18:31:35.423Z,1.05
2022-11-18T18:34:02.714Z,1.23
2022-11-18T18:36:32.717Z,1.27
2022-11-18T18:38:59.816Z,1.30
2022-11-18T18:41:29.669Z,1.45
2022-11-18T18:43:56.720Z,1.98
2022-11-18T18:46:28.624Z,1.08
2022-11-18T18:48:59.452Z,1.33
2022-11-18T18:51:28.309Z,2.40
2022-11-18T18:53:59.146Z,1.73
2022-11-18T18:56:26.506Z,1.75
2022-11-18T18:58:53.683Z,1.70
2022-11-18T19:01:20.741Z,1.60
2022-11-18T19:03:48.095Z,1.85
2022-11-18T19:06:50.191Z,1.58
2022-11-18T19:09:09.078Z,1.25
2022-11-18T19:11:55.371Z,2.33
2022-11-18T19:14:23.202Z,1.60
2022-11-18T19:16:50.814Z,2.00
2022-11-18T19:19:43.278Z,1.13
2022-11-18T19:22:11.921Z,1.45
2022-11-18T19:24:54.556Z,1.58
2022-11-18T19:27:21.838Z,1.80
2022-11-18T19:29:48.587Z,1.48
2022-11-18T19:32:15.511Z,1.55
2022-11-18T19:34:42.378Z,1.30
2022-11-18T19:37:09.244Z,1.85
2022-11-18T19:39:37.876Z,1.10
2022-11-18T19:42:04.646Z,1.35
2022-11-18T19:44:31.434Z,1.00
2022-11-18T19:46:58.212Z,1.50
2022-11-18T19:49:25.007Z,2.13
2022-11-18T19:51:52.923Z,1.73
2022-11-18T19:54:19.666Z,2.00
2022-11-18T19:56:46.657Z,1.95
2022-11-18T19:59:13.508Z,2.92
2022-11-18T20:01:40.993Z,2.28
2022-11-18T20:04:07.973Z,1.83
2022-11-18T20:06:36.219Z,1.75
2022-11-18T20:09:06.612Z,2.42
2022-11-18T20:11:33.404Z,2.00
2022-11-18T20:14:00.124Z,1.38
2022-11-18T20:16:26.913Z,1.38
2022-11-18T20:18:59.574Z,2.15
2022-11-18T20:21:27.632Z,1.60
2022-11-18T20:24:00.226Z,1.38
2022-11-18T20:29:01.969Z,2.25
2022-11-18T20:31:28.857Z,1.92
2022-11-18T20:33:56.888Z,1.30
2022-11-18T20:36:30.597Z,2.03
2022-11-18T20:38:59.897Z,2.17
2022-11-18T20:41:30.356Z,1.90
2022-11-18T20:43:57.792Z,2.33
2022-11-18T20:46:25.213Z,2.10
2022-11-18T20:48:52.067Z,1.98
2022-11-18T20:51:24.344Z,1.50
2022-11-18T20:53:52.531Z,1.70
2022-11-18T20:56:27.512Z,3.00
2022-11-18T20:58:57.112Z,2.00
2022-11-18T21:01:26.338Z,2.95
2022-11-18T21:03:54.271Z,1.27
2022-11-18T21:06:23.180Z,1.77
2022-11-18T21:08:54.872Z,2.08
2022-11-18T21:11:21.846Z,2.17
2022-11-18T21:14:07.339Z,2.28
2022-11-18T21:16:34.358Z,1.88
2022-11-18T21:19:01.119Z,2.53
2022-11-18T21:21:47.704Z,2.00
2022-11-18T21:24:22.989Z,1.77
2022-11-18T21:26:54.525Z,2.35
2022-11-18T21:29:22.392Z,1.33
2022-11-18T21:31:49.361Z,1.40
2022-11-18T21:34:17.104Z,3.00
2022-11-18T21:36:47.977Z,1.92
2022-11-18T21:39:18.580Z,2.60
2022-11-18T21:41:48.347Z,1.67
2022-11-18T21:44:17.519Z,1.67
2022-11-18T21:46:44.215Z,2.53
2022-11-18T21:49:10.983Z,1.75
2022-11-18T21:51:38.291Z,1.77
2022-11-18T21:54:05.445Z,1.80
2022-11-18T21:56:32.651Z,2.55
2022-11-18T21:59:01.081Z,1.83
2022-11-18T22:01:33.294Z,2.45
2022-11-18T22:04:02.591Z,1.65
2022-11-18T22:06:32.753Z,1.20
2022-11-18T22:09:00.458Z,1.95
2022-11-18T22:11:28.287Z,1.50
2022-11-18T22:13:55.419Z,2.50
2022-11-18T22:16:23.890Z,1.80
2022-11-18T22:18:58.037Z,3.25
2022-11-18T22:21:27.193Z,2.53
2022-11-18T22:23:59.182Z,1.83
2022-11-18T22:26:25.999Z,2.30
2022-11-18T22:28:54.447Z,2.65
2022-11-18T22:31:22.681Z,2.70
2022-11-18T22:33:51.419Z,1.90
2022-11-18T22:36:20.484Z,2.38
2022-11-18T22:38:48.292Z,2.42
2022-11-18T22:41:42.145Z,2.40
2022-11-18T22:44:10.045Z,2.10
2022-11-18T22:46:38.136Z,2.20
2022-11-18T22:49:06.066Z,1.63
2022-11-18T22:51:33.260Z,1.60
2022-11-18T22:54:30.621Z,2.55
2022-11-18T22:56:47.236Z,2.20
2022-11-18T22:59:14.061Z,1.85
2022-11-18T23:01:41.012Z,1.92
2022-11-18T23:04:07.882Z,2.40
2022-11-18T23:06:34.656Z,2.72
2022-11-18T23:09:01.513Z,3.92
2022-11-18T23:11:47.156Z,2.40
2022-11-18T23:14:13.892Z,3.08
2022-11-18T23:16:42.631Z,2.17
2022-11-18T23:19:12.132Z,2.92
2022-11-18T23:21:39.095Z,2.67
2022-11-18T23:24:06.796Z,2.08
2022-11-18T23:26:33.745Z,1.75
2022-11-18T23:29:00.541Z,2.45
2022-11-18T23:31:28.286Z,1.80
2022-11-18T23:33:56.440Z,2.55
2022-11-18T23:36:24.127Z,2.55
2022-11-18T23:38:52.778Z,2.05
2022-11-18T23:41:20.336Z,1.80
2022-11-18T23:43:48.490Z,2.28
2022-11-18T23:46:17.082Z,1.92
2022-11-18T23:48:45.006Z,2.80
2022-11-18T23:51:17.350Z,1.83
2022-11-18T23:53:45.578Z,2.25
2022-11-18T23:56:16.734Z,1.45
2022-11-18T23:58:46.109Z,1.40
